Mountain Home Air Force Base, ID (83648)

8:37 PM MDT on August 30, 2016 (GMT -0600)
Mountain Home Air Force Base | | Change Station
Active Advisory: Fire Weather Warning

Elev 2995 ft 43.04 °N, 115.87 °W | Updated 39 minutes ago

Clear
Clear
88 °F
Feels Like 88 °F
N
9
Wind Variable Wind from North

Today
High -- | Low -- °F
--% Chance of Precip.
Yesterday
High -- | Low -- °F
Precip. -- in
Pressure 29.77 in
Visibility 10.0 miles
Clouds Clear
Dew Point 41 °F
Humidity 20%
Rainfall 0.00 in
Snow Depth Not available.
7:06 AM 8:20 PM
Waning Crescent, 2% visible
METAR KMUO 310158Z AUTO 35008KT 10SM CLR 31/05 A2984 RMK AO2 SLP079 T03100052 $
Pressure 29.77 in
Visibility 10.0 miles
Clouds Clear
Dew Point 41 °F
Humidity 20%
Rainfall 0.00 in
Snow Depth Not available.
7:06 AM 8:20 PM
Waning Crescent, 2% visible
METAR KMUO 310158Z AUTO 35008KT 10SM CLR 31/05 A2984 RMK AO2 SLP079 T03100052 $

10-Day Weather Forecast

Almanac

Astronomy

Aug. 30, 2016 Rise Set
Actual Time
Civil Twilight
Nautical Twilight
Astronomical Twilight
Moon
Length of Visible Light
Length of Day
Tomorrow will be .
, % of the Moon is Illuminated

Today's Extremes

State Highs State Lows

Community

WunderPhotos

Upload Photos

1,936,002 photos uploaded!

WunderBlog® & News

Nearby

Air Quality

  Air Quality AQ Index Pollutant
Not available.

Snow Depth

Station Depth Elevation

Earthquake Activity

City Distance Mag. Time & Date
Minimum magnitude displayed is 2.5.

Coastal Water Temperatures

Place Temperature

Stations

Nearby Weather Stations

Station Location Temp. Windchill Dew Point Humidity Wind Precip. Elev Updated Type
                   

Watches & Warnings

Fire Weather Warning
Issued: 2:05 PM MDT Aug. 30, 2016 – National Weather Service

... Red flag warning remains in effect until 9 PM MDT this evening
for gusty winds and low rh values but is also in effect for high
Haines indicies across the west central mountains...

* winds... winds will be on the increase as the cloud cover begins
to clear from the south and west. Expect gusts to 30 mph in the
afternoon.

* Relative humidity... less than 15 percent.

* Haines... high Haines 6 values.

Precautionary/preparedness actions...

A red flag warning means that critical fire weather conditions
are either occurring now... or will shortly.